Elkins, WV

5:48 PM EDT on June 02, 2015 (GMT -0400)
KWVELKIN3 | | Change Station
CLOSE
Current Station
Personal Weather Station
Location: Elkins, WV
Elevation: 1972 ft
Nearby Weather Stations

Elev 1972 ft 38.89 °N, 79.85 °W | Updated 6 seconds ago

Overcast
Overcast
59.1 °F
Feels Like 59.1 °F
N
0.0
Wind Variable Wind from WNW
Gusts 0.0 mph

Today
High -- | Low -- °F
--% Chance of Precip.
Yesterday
High -- | Low -- °F
Precip. -- in
5:55 AM 8:39 PM
Full, 100% visible
Pressure 30.09 in
Visibility 8.0 miles
Clouds Overcast 800 ft
Dew Point 58 °F
Humidity 95%
Rainfall 0.14 in
Snow Depth Not available.
UV 2 out of 12
Pollen 1.40 out of 12
Air Quality Not available.
Flu Activity Sporadic
METAR KEKN 022051Z AUTO 34005KT 8SM OVC008 15/13 A3009 RMK AO2 SLP190 T01500128 56009 TSNO

More Conditions Fewer Conditions

Pressure 30.09 in
Visibility 8.0 miles
Clouds Overcast 800 ft
Dew Point 58 °F
Humidity 95%
Rainfall 0.14 in
Snow Depth Not available.
UV 2 out of 12
Pollen 1.40 out of 12
Air Quality Not available.
Flu Activity Sporadic
METAR KEKN 022051Z AUTO 34005KT 8SM OVC008 15/13 A3009 RMK AO2 SLP190 T01500128 56009 TSNO

More Conditions Fewer Conditions

10-Day Weather Forecast

×

Almanac

Astronomy

Jun. 02, 2015 Rise Set
Actual Time
Civil Twilight
Nautical Twilight
Astronomical Twilight
Moon
Length of Visible Light
Length of Day
Tomorrow will be .
, % of the Moon is Illuminated

Today's Extremes

State Highs State Lows

Community

WunderPhotos

Upload Photos

1,826,032 photos uploaded!

WunderBlogs® & News

Nearby

Air Quality

  Air Quality AQ Index Pollutant
Not available.

Snow Depth

Station Depth Elevation

Earthquake Activity

City Distance Mag. Time & Date
Minimum magnitude displayed is 2.5.

Coastal Water Temperatures

Place Temperature

Stations

Nearby Weather Stations

Station Location Temp. Windchill Dew Point Humidity Wind Precip. Elev Updated Type